sensor_id;sensor_type;location;lat;lon;timestamp;P1;durP1;ratioP1;P2;durP2;ratioP2
4323;SDS011;2175;51.018;6.994;2022-10-16T00:00:40;7.13;;;3.60;;
4323;SDS011;2175;51.018;6.994;2022-10-16T00:03:07;5.23;;;3.33;;
4323;SDS011;2175;51.018;6.994;2022-10-16T00:05:37;5.77;;;2.93;;
4323;SDS011;2175;51.018;6.994;2022-10-16T00:08:05;7.40;;;3.50;;
4323;SDS011;2175;51.018;6.994;2022-10-16T00:10:31;6.10;;;3.53;;
4323;SDS011;2175;51.018;6.994;2022-10-16T00:12:56;5.40;;;3.07;;
4323;SDS011;2175;51.018;6.994;2022-10-16T00:15:22;5.70;;;3.50;;
4323;SDS011;2175;51.018;6.994;2022-10-16T00:17:47;7.33;;;3.70;;
4323;SDS011;2175;51.018;6.994;2022-10-16T00:20:13;4.70;;;3.40;;
4323;SDS011;2175;51.018;6.994;2022-10-16T00:22:39;4.63;;;3.50;;
4323;SDS011;2175;51.018;6.994;2022-10-16T00:25:05;4.60;;;3.10;;
4323;SDS011;2175;51.018;6.994;2022-10-16T00:27:31;6.90;;;3.30;;
4323;SDS011;2175;51.018;6.994;2022-10-16T00:29:56;3.67;;;2.70;;
4323;SDS011;2175;51.018;6.994;2022-10-16T00:32:22;5.13;;;2.90;;
4323;SDS011;2175;51.018;6.994;2022-10-16T00:34:47;5.53;;;3.10;;
4323;SDS011;2175;51.018;6.994;2022-10-16T00:37:13;6.53;;;3.47;;
4323;SDS011;2175;51.018;6.994;2022-10-16T00:39:39;4.40;;;3.00;;
4323;SDS011;2175;51.018;6.994;2022-10-16T00:42:04;4.97;;;3.60;;
4323;SDS011;2175;51.018;6.994;2022-10-16T00:47:27;5.37;;;3.93;;
4323;SDS011;2175;51.018;6.994;2022-10-16T00:50:38;6.50;;;4.20;;
4323;SDS011;2175;51.018;6.994;2022-10-16T00:52:56;5.80;;;3.83;;
4323;SDS011;2175;51.018;6.994;2022-10-16T00:55:23;5.87;;;3.00;;
4323;SDS011;2175;51.018;6.994;2022-10-16T00:57:50;6.53;;;3.73;;
4323;SDS011;2175;51.018;6.994;2022-10-16T01:00:21;6.17;;;3.67;;
4323;SDS011;2175;51.018;6.994;2022-10-16T01:02:57;7.60;;;4.30;;
4323;SDS011;2175;51.018;6.994;2022-10-16T01:05:36;11.30;;;4.07;;
4323;SDS011;2175;51.018;6.994;2022-10-16T01:08:13;7.77;;;3.90;;
4323;SDS011;2175;51.018;6.994;2022-10-16T01:10:57;7.77;;;3.90;;
4323;SDS011;2175;51.018;6.994;2022-10-16T01:13:28;5.13;;;3.70;;
4323;SDS011;2175;51.018;6.994;2022-10-16T01:16:01;7.73;;;3.70;;
4323;SDS011;2175;51.018;6.994;2022-10-16T01:18:48;6.90;;;3.40;;
4323;SDS011;2175;51.018;6.994;2022-10-16T01:21:22;10.00;;;3.60;;
4323;SDS011;2175;51.018;6.994;2022-10-16T01:31:47;9.77;;;3.53;;
4323;SDS011;2175;51.018;6.994;2022-10-16T01:34:19;4.80;;;3.43;;
4323;SDS011;2175;51.018;6.994;2022-10-16T01:36:53;5.63;;;3.50;;
4323;SDS011;2175;51.018;6.994;2022-10-16T01:39:23;6.63;;;3.20;;
4323;SDS011;2175;51.018;6.994;2022-10-16T01:42:01;5.10;;;3.20;;
4323;SDS011;2175;51.018;6.994;2022-10-16T01:44:34;6.43;;;3.20;;
4323;SDS011;2175;51.018;6.994;2022-10-16T01:47:02;5.40;;;2.83;;
4323;SDS011;2175;51.018;6.994;2022-10-16T01:49:29;7.53;;;3.20;;
4323;SDS011;2175;51.018;6.994;2022-10-16T01:51:59;4.77;;;3.10;;
4323;SDS011;2175;51.018;6.994;2022-10-16T01:54:27;4.30;;;3.30;;
4323;SDS011;2175;51.018;6.994;2022-10-16T01:56:57;4.30;;;3.00;;
4323;SDS011;2175;51.018;6.994;2022-10-16T01:59:25;9.13;;;3.63;;
4323;SDS011;2175;51.018;6.994;2022-10-16T02:01:55;4.30;;;3.23;;
4323;SDS011;2175;51.018;6.994;2022-10-16T02:04:29;3.70;;;3.03;;
4323;SDS011;2175;51.018;6.994;2022-10-16T02:07:03;5.33;;;2.80;;
4323;SDS011;2175;51.018;6.994;2022-10-16T02:09:29;12.13;;;3.37;;
4323;SDS011;2175;51.018;6.994;2022-10-16T02:11:57;4.63;;;3.00;;
4323;SDS011;2175;51.018;6.994;2022-10-16T02:14:27;6.37;;;3.43;;
4323;SDS011;2175;51.018;6.994;2022-10-16T02:16:53;3.70;;;3.00;;
4323;SDS011;2175;51.018;6.994;2022-10-16T02:19:19;4.30;;;3.23;;
4323;SDS011;2175;51.018;6.994;2022-10-16T02:21:48;4.47;;;2.90;;
4323;SDS011;2175;51.018;6.994;2022-10-16T02:27:13;6.57;;;3.30;;
4323;SDS011;2175;51.018;6.994;2022-10-16T02:29:48;4.43;;;2.80;;
4323;SDS011;2175;51.018;6.994;2022-10-16T02:32:22;6.97;;;3.40;;
4323;SDS011;2175;51.018;6.994;2022-10-16T02:34:49;4.80;;;2.80;;
4323;SDS011;2175;51.018;6.994;2022-10-16T02:37:16;7.30;;;3.27;;
4323;SDS011;2175;51.018;6.994;2022-10-16T02:39:43;4.70;;;3.33;;
4323;SDS011;2175;51.018;6.994;2022-10-16T02:42:10;4.07;;;3.17;;
4323;SDS011;2175;51.018;6.994;2022-10-16T02:44:37;6.30;;;3.60;;
4323;SDS011;2175;51.018;6.994;2022-10-16T02:47:03;6.10;;;3.17;;
4323;SDS011;2175;51.018;6.994;2022-10-16T02:49:29;4.83;;;2.90;;
4323;SDS011;2175;51.018;6.994;2022-10-16T02:51:54;3.77;;;3.10;;
4323;SDS011;2175;51.018;6.994;2022-10-16T02:54:20;7.03;;;2.87;;
4323;SDS011;2175;51.018;6.994;2022-10-16T02:56:45;5.90;;;3.60;;
4323;SDS011;2175;51.018;6.994;2022-10-16T02:59:11;4.20;;;3.40;;
4323;SDS011;2175;51.018;6.994;2022-10-16T03:01:36;9.03;;;3.10;;
4323;SDS011;2175;51.018;6.994;2022-10-16T03:04:02;6.77;;;3.40;;
4323;SDS011;2175;51.018;6.994;2022-10-16T03:06:28;4.40;;;3.27;;
4323;SDS011;2175;51.018;6.994;2022-10-16T03:08:53;7.27;;;3.60;;
4323;SDS011;2175;51.018;6.994;2022-10-16T03:11:19;5.80;;;3.20;;
4323;SDS011;2175;51.018;6.994;2022-10-16T03:13:44;5.03;;;3.10;;
4323;SDS011;2175;51.018;6.994;2022-10-16T03:16:10;7.10;;;3.37;;
4323;SDS011;2175;51.018;6.994;2022-10-16T03:18:36;5.37;;;3.40;;
4323;SDS011;2175;51.018;6.994;2022-10-16T03:21:01;3.63;;;2.70;;
4323;SDS011;2175;51.018;6.994;2022-10-16T03:23:27;4.10;;;2.87;;
4323;SDS011;2175;51.018;6.994;2022-10-16T03:25:53;3.37;;;2.40;;
4323;SDS011;2175;51.018;6.994;2022-10-16T03:28:19;4.00;;;2.80;;
4323;SDS011;2175;51.018;6.994;2022-10-16T03:30:44;4.30;;;2.70;;
4323;SDS011;2175;51.018;6.994;2022-10-16T03:33:10;3.87;;;2.83;;
4323;SDS011;2175;51.018;6.994;2022-10-16T03:35:35;5.30;;;2.20;;
4323;SDS011;2175;51.018;6.994;2022-10-16T03:38:01;3.13;;;2.10;;
4323;SDS011;2175;51.018;6.994;2022-10-16T03:40:27;3.77;;;2.43;;
4323;SDS011;2175;51.018;6.994;2022-10-16T03:42:52;2.90;;;2.60;;
4323;SDS011;2175;51.018;6.994;2022-10-16T03:45:22;10.23;;;3.07;;
4323;SDS011;2175;51.018;6.994;2022-10-16T03:47:47;11.47;;;2.97;;
4323;SDS011;2175;51.018;6.994;2022-10-16T03:50:13;6.17;;;2.57;;
4323;SDS011;2175;51.018;6.994;2022-10-16T03:52:39;3.87;;;2.50;;
4323;SDS011;2175;51.018;6.994;2022-10-16T03:55:04;4.23;;;2.87;;
4323;SDS011;2175;51.018;6.994;2022-10-16T03:57:31;2.80;;;2.27;;
4323;SDS011;2175;51.018;6.994;2022-10-16T03:59:56;4.50;;;2.67;;
4323;SDS011;2175;51.018;6.994;2022-10-16T04:02:22;3.20;;;2.50;;
4323;SDS011;2175;51.018;6.994;2022-10-16T04:04:47;13.70;;;2.90;;
4323;SDS011;2175;51.018;6.994;2022-10-16T04:07:13;8.43;;;2.50;;
4323;SDS011;2175;51.018;6.994;2022-10-16T04:09:39;5.33;;;2.70;;
4323;SDS011;2175;51.018;6.994;2022-10-16T04:12:04;5.50;;;3.10;;
4323;SDS011;2175;51.018;6.994;2022-10-16T04:14:30;3.33;;;2.40;;
4323;SDS011;2175;51.018;6.994;2022-10-16T04:16:55;4.67;;;3.00;;
4323;SDS011;2175;51.018;6.994;2022-10-16T04:19:21;5.83;;;2.90;;
4323;SDS011;2175;51.018;6.994;2022-10-16T04:21:46;6.70;;;3.07;;
4323;SDS011;2175;51.018;6.994;2022-10-16T04:24:12;4.60;;;2.97;;
4323;SDS011;2175;51.018;6.994;2022-10-16T04:26:38;4.10;;;2.73;;
4323;SDS011;2175;51.018;6.994;2022-10-16T04:29:03;5.07;;;3.03;;
4323;SDS011;2175;51.018;6.994;2022-10-16T04:31:29;5.30;;;2.70;;
4323;SDS011;2175;51.018;6.994;2022-10-16T04:33:55;6.13;;;2.80;;
4323;SDS011;2175;51.018;6.994;2022-10-16T04:36:21;4.47;;;2.60;;
4323;SDS011;2175;51.018;6.994;2022-10-16T04:38:46;7.23;;;2.83;;
4323;SDS011;2175;51.018;6.994;2022-10-16T04:41:12;3.40;;;2.80;;
4323;SDS011;2175;51.018;6.994;2022-10-16T04:43:38;11.63;;;3.07;;
4323;SDS011;2175;51.018;6.994;2022-10-16T04:46:03;2.73;;;2.43;;
4323;SDS011;2175;51.018;6.994;2022-10-16T04:48:30;3.70;;;2.90;;
4323;SDS011;2175;51.018;6.994;2022-10-16T04:50:56;3.20;;;2.80;;
4323;SDS011;2175;51.018;6.994;2022-10-16T04:53:21;6.93;;;2.83;;
4323;SDS011;2175;51.018;6.994;2022-10-16T04:55:47;3.73;;;3.07;;
4323;SDS011;2175;51.018;6.994;2022-10-16T04:58:13;4.90;;;2.73;;
4323;SDS011;2175;51.018;6.994;2022-10-16T05:00:38;2.60;;;2.30;;
4323;SDS011;2175;51.018;6.994;2022-10-16T05:03:04;4.50;;;2.50;;
4323;SDS011;2175;51.018;6.994;2022-10-16T05:05:32;7.60;;;3.37;;
4323;SDS011;2175;51.018;6.994;2022-10-16T05:07:58;6.30;;;3.20;;
4323;SDS011;2175;51.018;6.994;2022-10-16T05:10:23;3.10;;;2.80;;
4323;SDS011;2175;51.018;6.994;2022-10-16T05:12:49;6.07;;;2.60;;
4323;SDS011;2175;51.018;6.994;2022-10-16T05:15:16;4.73;;;3.07;;
4323;SDS011;2175;51.018;6.994;2022-10-16T05:17:42;8.33;;;2.63;;
4323;SDS011;2175;51.018;6.994;2022-10-16T05:20:07;5.63;;;2.87;;
4323;SDS011;2175;51.018;6.994;2022-10-16T05:22:33;6.10;;;2.90;;
4323;SDS011;2175;51.018;6.994;2022-10-16T05:24:59;4.77;;;2.80;;
4323;SDS011;2175;51.018;6.994;2022-10-16T05:27:24;3.83;;;2.60;;
4323;SDS011;2175;51.018;6.994;2022-10-16T05:29:50;19.80;;;3.10;;
4323;SDS011;2175;51.018;6.994;2022-10-16T05:32:16;3.50;;;2.70;;
4323;SDS011;2175;51.018;6.994;2022-10-16T05:34:42;7.37;;;2.87;;
4323;SDS011;2175;51.018;6.994;2022-10-16T05:37:09;4.27;;;2.93;;
4323;SDS011;2175;51.018;6.994;2022-10-16T05:39:36;4.27;;;2.90;;
4323;SDS011;2175;51.018;6.994;2022-10-16T05:42:02;3.87;;;2.60;;
4323;SDS011;2175;51.018;6.994;2022-10-16T05:44:28;4.70;;;2.57;;
4323;SDS011;2175;51.018;6.994;2022-10-16T05:46:54;7.07;;;2.53;;
4323;SDS011;2175;51.018;6.994;2022-10-16T05:49:20;8.57;;;2.73;;
4323;SDS011;2175;51.018;6.994;2022-10-16T05:51:45;5.20;;;3.10;;
4323;SDS011;2175;51.018;6.994;2022-10-16T05:54:11;4.17;;;2.60;;
4323;SDS011;2175;51.018;6.994;2022-10-16T05:56:36;6.20;;;2.70;;
4323;SDS011;2175;51.018;6.994;2022-10-16T05:59:05;9.50;;;2.83;;
4323;SDS011;2175;51.018;6.994;2022-10-16T06:01:31;3.17;;;2.10;;
4323;SDS011;2175;51.018;6.994;2022-10-16T06:03:57;3.33;;;2.40;;
4323;SDS011;2175;51.018;6.994;2022-10-16T06:06:24;9.90;;;2.63;;
4323;SDS011;2175;51.018;6.994;2022-10-16T06:08:51;3.87;;;2.30;;
4323;SDS011;2175;51.018;6.994;2022-10-16T06:11:20;2.80;;;2.50;;
4323;SDS011;2175;51.018;6.994;2022-10-16T06:13:51;3.23;;;2.60;;
4323;SDS011;2175;51.018;6.994;2022-10-16T06:16:18;6.00;;;2.57;;
4323;SDS011;2175;51.018;6.994;2022-10-16T06:18:44;6.13;;;2.33;;
4323;SDS011;2175;51.018;6.994;2022-10-16T06:21:21;3.53;;;2.57;;
4323;SDS011;2175;51.018;6.994;2022-10-16T06:23:50;5.43;;;2.97;;
4323;SDS011;2175;51.018;6.994;2022-10-16T06:26:17;4.00;;;2.80;;
4323;SDS011;2175;51.018;6.994;2022-10-16T06:28:44;4.20;;;2.50;;
4323;SDS011;2175;51.018;6.994;2022-10-16T06:31:10;4.77;;;2.93;;
4323;SDS011;2175;51.018;6.994;2022-10-16T06:33:37;4.10;;;2.73;;
4323;SDS011;2175;51.018;6.994;2022-10-16T06:36:08;7.70;;;2.77;;
4323;SDS011;2175;51.018;6.994;2022-10-16T06:38:39;3.67;;;2.90;;
4323;SDS011;2175;51.018;6.994;2022-10-16T06:41:05;10.53;;;3.20;;
4323;SDS011;2175;51.018;6.994;2022-10-16T06:43:32;4.60;;;3.10;;
4323;SDS011;2175;51.018;6.994;2022-10-16T06:46:00;10.77;;;3.10;;
4323;SDS011;2175;51.018;6.994;2022-10-16T06:48:26;7.97;;;2.77;;
4323;SDS011;2175;51.018;6.994;2022-10-16T06:50:59;3.57;;;2.70;;
4323;SDS011;2175;51.018;6.994;2022-10-16T06:53:27;4.73;;;3.20;;
4323;SDS011;2175;51.018;6.994;2022-10-16T06:55:54;4.80;;;2.97;;
4323;SDS011;2175;51.018;6.994;2022-10-16T06:58:20;6.07;;;3.00;;
4323;SDS011;2175;51.018;6.994;2022-10-16T07:00:46;9.43;;;3.10;;
4323;SDS011;2175;51.018;6.994;2022-10-16T07:03:12;3.70;;;2.97;;
4323;SDS011;2175;51.018;6.994;2022-10-16T07:05:39;4.87;;;2.60;;
4323;SDS011;2175;51.018;6.994;2022-10-16T07:08:06;3.50;;;2.90;;
4323;SDS011;2175;51.018;6.994;2022-10-16T07:10:32;9.70;;;2.90;;
4323;SDS011;2175;51.018;6.994;2022-10-16T07:12:58;9.40;;;2.83;;
4323;SDS011;2175;51.018;6.994;2022-10-16T07:15:24;3.70;;;2.70;;
4323;SDS011;2175;51.018;6.994;2022-10-16T07:17:51;4.23;;;2.70;;
4323;SDS011;2175;51.018;6.994;2022-10-16T07:20:17;3.17;;;2.60;;
4323;SDS011;2175;51.018;6.994;2022-10-16T07:22:42;5.10;;;2.90;;
4323;SDS011;2175;51.018;6.994;2022-10-16T07:25:08;3.23;;;2.90;;
4323;SDS011;2175;51.018;6.994;2022-10-16T07:27:34;3.93;;;3.07;;
4323;SDS011;2175;51.018;6.994;2022-10-16T07:29:59;4.73;;;3.03;;
4323;SDS011;2175;51.018;6.994;2022-10-16T07:32:25;3.97;;;3.20;;
4323;SDS011;2175;51.018;6.994;2022-10-16T07:34:51;4.77;;;2.67;;
4323;SDS011;2175;51.018;6.994;2022-10-16T07:37:17;3.43;;;2.37;;
4323;SDS011;2175;51.018;6.994;2022-10-16T07:39:43;5.33;;;2.70;;
4323;SDS011;2175;51.018;6.994;2022-10-16T07:42:08;5.30;;;3.10;;
4323;SDS011;2175;51.018;6.994;2022-10-16T07:44:34;5.90;;;2.90;;
4323;SDS011;2175;51.018;6.994;2022-10-16T07:47:00;3.90;;;2.60;;
4323;SDS011;2175;51.018;6.994;2022-10-16T07:49:25;3.83;;;3.00;;
4323;SDS011;2175;51.018;6.994;2022-10-16T07:51:51;3.60;;;2.73;;
4323;SDS011;2175;51.018;6.994;2022-10-16T07:54:16;3.03;;;2.73;;
4323;SDS011;2175;51.018;6.994;2022-10-16T07:56:42;3.57;;;3.00;;
4323;SDS011;2175;51.018;6.994;2022-10-16T07:59:08;6.63;;;2.87;;
4323;SDS011;2175;51.018;6.994;2022-10-16T08:01:33;5.60;;;2.80;;
4323;SDS011;2175;51.018;6.994;2022-10-16T08:03:59;3.30;;;2.70;;
4323;SDS011;2175;51.018;6.994;2022-10-16T08:06:24;11.87;;;3.20;;
4323;SDS011;2175;51.018;6.994;2022-10-16T08:08:50;5.43;;;3.33;;
4323;SDS011;2175;51.018;6.994;2022-10-16T08:11:16;5.80;;;3.40;;
4323;SDS011;2175;51.018;6.994;2022-10-16T08:13:42;5.17;;;3.37;;
4323;SDS011;2175;51.018;6.994;2022-10-16T08:16:07;6.77;;;3.10;;
4323;SDS011;2175;51.018;6.994;2022-10-16T08:18:38;3.13;;;2.60;;
4323;SDS011;2175;51.018;6.994;2022-10-16T08:21:04;6.77;;;3.03;;
4323;SDS011;2175;51.018;6.994;2022-10-16T08:23:31;8.40;;;3.77;;
4323;SDS011;2175;51.018;6.994;2022-10-16T08:26:01;7.10;;;3.60;;
4323;SDS011;2175;51.018;6.994;2022-10-16T08:28:29;5.03;;;3.30;;
4323;SDS011;2175;51.018;6.994;2022-10-16T08:30:55;8.43;;;2.70;;
4323;SDS011;2175;51.018;6.994;2022-10-16T08:33:21;1.73;;;1.60;;
4323;SDS011;2175;51.018;6.994;2022-10-16T08:35:51;5.80;;;1.80;;
4323;SDS011;2175;51.018;6.994;2022-10-16T08:38:18;5.93;;;1.80;;
4323;SDS011;2175;51.018;6.994;2022-10-16T08:40:44;3.10;;;1.80;;
4323;SDS011;2175;51.018;6.994;2022-10-16T08:51:06;8.20;;;1.63;;
4323;SDS011;2175;51.018;6.994;2022-10-16T08:53:41;5.83;;;1.70;;
4323;SDS011;2175;51.018;6.994;2022-10-16T08:56:28;3.10;;;1.73;;
4323;SDS011;2175;51.018;6.994;2022-10-16T08:58:54;2.90;;;1.73;;
4323;SDS011;2175;51.018;6.994;2022-10-16T09:01:20;9.30;;;1.97;;
4323;SDS011;2175;51.018;6.994;2022-10-16T09:06:35;2.23;;;1.70;;
4323;SDS011;2175;51.018;6.994;2022-10-16T09:20:26;2.47;;;1.33;;
4323;SDS011;2175;51.018;6.994;2022-10-16T09:23:14;2.07;;;1.63;;
4323;SDS011;2175;51.018;6.994;2022-10-16T09:25:47;4.00;;;1.70;;
4323;SDS011;2175;51.018;6.994;2022-10-16T09:28:15;3.10;;;1.60;;
4323;SDS011;2175;51.018;6.994;2022-10-16T09:30:41;3.40;;;1.90;;
4323;SDS011;2175;51.018;6.994;2022-10-16T09:33:07;2.70;;;1.70;;
4323;SDS011;2175;51.018;6.994;2022-10-16T09:35:42;5.00;;;1.50;;
4323;SDS011;2175;51.018;6.994;2022-10-16T09:38:20;2.97;;;1.63;;
4323;SDS011;2175;51.018;6.994;2022-10-16T09:40:52;3.73;;;1.70;;
4323;SDS011;2175;51.018;6.994;2022-10-16T09:43:25;4.70;;;1.80;;
4323;SDS011;2175;51.018;6.994;2022-10-16T09:46:25;3.00;;;1.83;;
4323;SDS011;2175;51.018;6.994;2022-10-16T09:48:53;2.50;;;1.50;;
4323;SDS011;2175;51.018;6.994;2022-10-16T09:51:22;2.70;;;1.60;;
4323;SDS011;2175;51.018;6.994;2022-10-16T09:53:53;2.73;;;1.30;;
4323;SDS011;2175;51.018;6.994;2022-10-16T09:56:32;2.60;;;1.50;;
4323;SDS011;2175;51.018;6.994;2022-10-16T09:59:08;1.80;;;1.30;;
4323;SDS011;2175;51.018;6.994;2022-10-16T10:01:40;2.70;;;1.30;;
4323;SDS011;2175;51.018;6.994;2022-10-16T10:04:11;5.10;;;1.40;;
4323;SDS011;2175;51.018;6.994;2022-10-16T10:06:44;2.60;;;1.40;;
4323;SDS011;2175;51.018;6.994;2022-10-16T10:09:42;3.63;;;1.40;;
4323;SDS011;2175;51.018;6.994;2022-10-16T10:12:32;5.50;;;1.50;;
4323;SDS011;2175;51.018;6.994;2022-10-16T10:15:07;2.53;;;1.33;;
4323;SDS011;2175;51.018;6.994;2022-10-16T10:18:02;1.90;;;1.27;;
4323;SDS011;2175;51.018;6.994;2022-10-16T10:21:02;2.77;;;1.40;;
4323;SDS011;2175;51.018;6.994;2022-10-16T10:23:45;3.70;;;1.30;;
4323;SDS011;2175;51.018;6.994;2022-10-16T10:26:23;3.50;;;1.30;;
4323;SDS011;2175;51.018;6.994;2022-10-16T10:31:34;4.30;;;1.60;;
4323;SDS011;2175;51.018;6.994;2022-10-16T10:40:15;2.63;;;1.60;;
4323;SDS011;2175;51.018;6.994;2022-10-16T10:46:00;2.97;;;1.30;;
4323;SDS011;2175;51.018;6.994;2022-10-16T10:51:04;2.90;;;1.30;;
4323;SDS011;2175;51.018;6.994;2022-10-16T10:56:14;2.90;;;1.50;;
4323;SDS011;2175;51.018;6.994;2022-10-16T11:06:52;2.27;;;1.30;;
4323;SDS011;2175;51.018;6.994;2022-10-16T11:10:08;1.80;;;1.20;;
4323;SDS011;2175;51.018;6.994;2022-10-16T11:12:16;2.60;;;1.37;;
4323;SDS011;2175;51.018;6.994;2022-10-16T11:14:54;3.60;;;1.47;;
4323;SDS011;2175;51.018;6.994;2022-10-16T11:17:38;4.17;;;1.30;;
4323;SDS011;2175;51.018;6.994;2022-10-16T11:20:21;2.97;;;1.20;;
4323;SDS011;2175;51.018;6.994;2022-10-16T11:22:54;3.63;;;1.47;;
4323;SDS011;2175;51.018;6.994;2022-10-16T11:27:56;3.07;;;1.37;;
4323;SDS011;2175;51.018;6.994;2022-10-16T11:30:33;2.60;;;1.40;;
4323;SDS011;2175;51.018;6.994;2022-10-16T11:36:19;2.97;;;1.50;;
4323;SDS011;2175;51.018;6.994;2022-10-16T11:39:02;8.27;;;1.67;;
4323;SDS011;2175;51.018;6.994;2022-10-16T11:41:34;4.43;;;1.37;;
4323;SDS011;2175;51.018;6.994;2022-10-16T11:49:49;3.53;;;1.57;;
4323;SDS011;2175;51.018;6.994;2022-10-16T11:55:02;2.47;;;1.67;;
4323;SDS011;2175;51.018;6.994;2022-10-16T11:57:35;6.50;;;1.37;;
4323;SDS011;2175;51.018;6.994;2022-10-16T12:00:08;2.93;;;1.30;;
4323;SDS011;2175;51.018;6.994;2022-10-16T12:07:48;1.80;;;1.30;;
4323;SDS011;2175;51.018;6.994;2022-10-16T12:10:23;2.27;;;1.23;;
4323;SDS011;2175;51.018;6.994;2022-10-16T12:12:54;3.67;;;1.40;;
4323;SDS011;2175;51.018;6.994;2022-10-16T12:15:28;1.70;;;1.20;;
4323;SDS011;2175;51.018;6.994;2022-10-16T12:17:56;2.60;;;1.47;;
4323;SDS011;2175;51.018;6.994;2022-10-16T12:20:26;2.43;;;1.43;;
4323;SDS011;2175;51.018;6.994;2022-10-16T12:27:54;4.07;;;1.40;;
4323;SDS011;2175;51.018;6.994;2022-10-16T12:30:26;3.33;;;1.40;;
4323;SDS011;2175;51.018;6.994;2022-10-16T12:32:55;2.40;;;1.43;;
4323;SDS011;2175;51.018;6.994;2022-10-16T12:35:27;4.80;;;1.50;;
4323;SDS011;2175;51.018;6.994;2022-10-16T12:38:04;2.13;;;1.23;;
4323;SDS011;2175;51.018;6.994;2022-10-16T12:40:32;2.27;;;1.40;;
4323;SDS011;2175;51.018;6.994;2022-10-16T12:43:10;1.40;;;1.20;;
4323;SDS011;2175;51.018;6.994;2022-10-16T12:45:45;2.63;;;1.70;;
4323;SDS011;2175;51.018;6.994;2022-10-16T12:48:19;5.50;;;2.30;;
4323;SDS011;2175;51.018;6.994;2022-10-16T12:50:46;4.43;;;1.63;;
4323;SDS011;2175;51.018;6.994;2022-10-16T12:55:57;2.80;;;1.40;;
4323;SDS011;2175;51.018;6.994;2022-10-16T12:58:37;4.03;;;1.40;;
4323;SDS011;2175;51.018;6.994;2022-10-16T13:06:58;4.20;;;1.50;;
4323;SDS011;2175;51.018;6.994;2022-10-16T13:28:31;2.33;;;1.30;;
4323;SDS011;2175;51.018;6.994;2022-10-16T13:30:59;2.60;;;1.20;;
4323;SDS011;2175;51.018;6.994;2022-10-16T13:35:52;3.03;;;1.57;;
4323;SDS011;2175;51.018;6.994;2022-10-16T13:40:57;4.03;;;1.30;;
4323;SDS011;2175;51.018;6.994;2022-10-16T13:46:10;1.80;;;1.40;;
4323;SDS011;2175;51.018;6.994;2022-10-16T13:48:41;1.93;;;1.20;;
4323;SDS011;2175;51.018;6.994;2022-10-16T13:51:17;3.40;;;1.47;;
4323;SDS011;2175;51.018;6.994;2022-10-16T13:53:44;4.33;;;1.50;;
4323;SDS011;2175;51.018;6.994;2022-10-16T13:56:11;3.30;;;1.53;;
4323;SDS011;2175;51.018;6.994;2022-10-16T13:58:45;2.63;;;1.20;;
4323;SDS011;2175;51.018;6.994;2022-10-16T14:01:19;3.33;;;1.53;;
4323;SDS011;2175;51.018;6.994;2022-10-16T14:03:48;2.50;;;1.33;;
4323;SDS011;2175;51.018;6.994;2022-10-16T14:06:16;3.73;;;1.40;;
4323;SDS011;2175;51.018;6.994;2022-10-16T14:08:48;2.90;;;1.57;;
4323;SDS011;2175;51.018;6.994;2022-10-16T14:11:21;3.83;;;1.23;;
4323;SDS011;2175;51.018;6.994;2022-10-16T14:13:49;8.07;;;1.50;;
4323;SDS011;2175;51.018;6.994;2022-10-16T14:16:22;2.90;;;1.13;;
4323;SDS011;2175;51.018;6.994;2022-10-16T14:18:56;3.20;;;1.63;;
4323;SDS011;2175;51.018;6.994;2022-10-16T14:21:24;4.17;;;1.50;;
4323;SDS011;2175;51.018;6.994;2022-10-16T14:23:51;4.43;;;1.70;;
4323;SDS011;2175;51.018;6.994;2022-10-16T14:26:19;2.53;;;1.47;;
4323;SDS011;2175;51.018;6.994;2022-10-16T14:28:47;3.70;;;1.47;;
4323;SDS011;2175;51.018;6.994;2022-10-16T14:31:24;5.10;;;1.60;;
4323;SDS011;2175;51.018;6.994;2022-10-16T14:33:54;5.97;;;1.87;;
4323;SDS011;2175;51.018;6.994;2022-10-16T14:36:20;5.83;;;1.70;;
4323;SDS011;2175;51.018;6.994;2022-10-16T14:41:28;2.50;;;1.40;;
4323;SDS011;2175;51.018;6.994;2022-10-16T14:44:02;3.93;;;1.73;;
4323;SDS011;2175;51.018;6.994;2022-10-16T14:46:33;5.63;;;1.80;;
4323;SDS011;2175;51.018;6.994;2022-10-16T14:51:36;4.83;;;1.90;;
4323;SDS011;2175;51.018;6.994;2022-10-16T14:54:11;4.50;;;2.00;;
4323;SDS011;2175;51.018;6.994;2022-10-16T14:56:43;2.10;;;1.70;;
4323;SDS011;2175;51.018;6.994;2022-10-16T14:59:19;2.73;;;1.40;;
4323;SDS011;2175;51.018;6.994;2022-10-16T15:01:45;3.10;;;1.40;;
4323;SDS011;2175;51.018;6.994;2022-10-16T15:04:12;2.20;;;1.50;;
4323;SDS011;2175;51.018;6.994;2022-10-16T15:06:38;4.40;;;1.60;;
4323;SDS011;2175;51.018;6.994;2022-10-16T15:09:04;3.10;;;1.40;;
4323;SDS011;2175;51.018;6.994;2022-10-16T15:11:29;3.10;;;1.60;;
4323;SDS011;2175;51.018;6.994;2022-10-16T15:13:57;3.93;;;1.63;;
4323;SDS011;2175;51.018;6.994;2022-10-16T15:16:23;3.87;;;1.90;;
4323;SDS011;2175;51.018;6.994;2022-10-16T15:18:49;3.70;;;1.80;;
4323;SDS011;2175;51.018;6.994;2022-10-16T15:21:20;5.10;;;1.70;;
4323;SDS011;2175;51.018;6.994;2022-10-16T15:23:51;3.40;;;1.60;;
4323;SDS011;2175;51.018;6.994;2022-10-16T15:26:17;8.77;;;1.73;;
4323;SDS011;2175;51.018;6.994;2022-10-16T15:28:43;4.53;;;1.60;;
4323;SDS011;2175;51.018;6.994;2022-10-16T15:31:08;3.77;;;2.50;;
4323;SDS011;2175;51.018;6.994;2022-10-16T15:33:34;7.53;;;2.20;;
4323;SDS011;2175;51.018;6.994;2022-10-16T15:36:00;5.53;;;2.40;;
4323;SDS011;2175;51.018;6.994;2022-10-16T15:38:27;7.20;;;2.30;;
4323;SDS011;2175;51.018;6.994;2022-10-16T15:40:54;2.27;;;1.90;;
4323;SDS011;2175;51.018;6.994;2022-10-16T15:43:20;3.67;;;2.27;;
4323;SDS011;2175;51.018;6.994;2022-10-16T15:45:58;3.47;;;2.20;;
4323;SDS011;2175;51.018;6.994;2022-10-16T15:48:26;4.67;;;2.03;;
4323;SDS011;2175;51.018;6.994;2022-10-16T15:50:52;4.00;;;2.07;;
4323;SDS011;2175;51.018;6.994;2022-10-16T15:53:18;3.47;;;1.93;;
4323;SDS011;2175;51.018;6.994;2022-10-16T15:55:43;7.47;;;2.03;;
4323;SDS011;2175;51.018;6.994;2022-10-16T15:58:09;3.30;;;1.83;;
4323;SDS011;2175;51.018;6.994;2022-10-16T16:00:34;3.07;;;1.80;;
4323;SDS011;2175;51.018;6.994;2022-10-16T16:03:00;3.17;;;1.60;;
4323;SDS011;2175;51.018;6.994;2022-10-16T16:05:25;2.80;;;1.87;;
4323;SDS011;2175;51.018;6.994;2022-10-16T16:07:52;5.60;;;2.10;;
4323;SDS011;2175;51.018;6.994;2022-10-16T16:10:27;4.17;;;1.90;;
4323;SDS011;2175;51.018;6.994;2022-10-16T16:13:03;4.60;;;1.50;;
4323;SDS011;2175;51.018;6.994;2022-10-16T16:15:29;2.73;;;2.00;;
4323;SDS011;2175;51.018;6.994;2022-10-16T16:17:58;5.17;;;1.83;;
4323;SDS011;2175;51.018;6.994;2022-10-16T16:20:25;4.17;;;1.77;;
4323;SDS011;2175;51.018;6.994;2022-10-16T16:22:53;2.90;;;1.77;;
4323;SDS011;2175;51.018;6.994;2022-10-16T16:25:22;5.07;;;1.90;;
4323;SDS011;2175;51.018;6.994;2022-10-16T16:27:50;2.80;;;2.17;;
4323;SDS011;2175;51.018;6.994;2022-10-16T16:30:18;3.00;;;1.90;;
4323;SDS011;2175;51.018;6.994;2022-10-16T16:32:45;3.30;;;2.00;;
4323;SDS011;2175;51.018;6.994;2022-10-16T16:35:14;2.67;;;1.63;;
4323;SDS011;2175;51.018;6.994;2022-10-16T16:37:40;5.10;;;2.00;;
4323;SDS011;2175;51.018;6.994;2022-10-16T16:40:06;3.60;;;2.20;;
4323;SDS011;2175;51.018;6.994;2022-10-16T16:42:32;2.37;;;1.87;;
4323;SDS011;2175;51.018;6.994;2022-10-16T16:44:57;4.00;;;2.00;;
4323;SDS011;2175;51.018;6.994;2022-10-16T16:47:23;2.67;;;2.00;;
4323;SDS011;2175;51.018;6.994;2022-10-16T16:49:48;4.83;;;2.40;;
4323;SDS011;2175;51.018;6.994;2022-10-16T16:52:14;3.30;;;1.97;;
4323;SDS011;2175;51.018;6.994;2022-10-16T16:54:40;5.30;;;2.03;;
4323;SDS011;2175;51.018;6.994;2022-10-16T16:57:06;14.83;;;2.27;;
4323;SDS011;2175;51.018;6.994;2022-10-16T16:59:31;5.80;;;3.30;;
4323;SDS011;2175;51.018;6.994;2022-10-16T17:01:58;5.00;;;2.90;;
4323;SDS011;2175;51.018;6.994;2022-10-16T17:04:24;5.30;;;2.67;;
4323;SDS011;2175;51.018;6.994;2022-10-16T17:06:50;5.53;;;2.40;;
4323;SDS011;2175;51.018;6.994;2022-10-16T17:09:17;3.30;;;2.17;;
4323;SDS011;2175;51.018;6.994;2022-10-16T17:11:42;2.50;;;1.97;;
4323;SDS011;2175;51.018;6.994;2022-10-16T17:14:09;5.10;;;2.10;;
4323;SDS011;2175;51.018;6.994;2022-10-16T17:16:35;2.20;;;1.70;;
4323;SDS011;2175;51.018;6.994;2022-10-16T17:19:03;3.80;;;2.63;;
4323;SDS011;2175;51.018;6.994;2022-10-16T17:21:30;4.63;;;2.70;;
4323;SDS011;2175;51.018;6.994;2022-10-16T17:24:25;3.93;;;2.30;;
4323;SDS011;2175;51.018;6.994;2022-10-16T17:27:13;6.27;;;2.30;;
4323;SDS011;2175;51.018;6.994;2022-10-16T17:30:30;2.63;;;2.03;;
4323;SDS011;2175;51.018;6.994;2022-10-16T17:33:02;5.50;;;2.10;;